Time;durP1;ratioP1;P1;durP2;ratioP2;P2;SDS_P1;SDS_P2;PMS_P1;PMS_P2;Temp;Humidity;BMP_temperature;BMP_pressure;BME280_temperature;BME280_humidity;BME280_pressure;Samples;Min_cycle;Max_cycle;Signal;HPM_P1;HPM_P2
2023/05/17 00:02:11;;;;;;;;;;;8.80;99.90;;;;;;5063410;28;19951;-64
2023/05/17 00:04:46;;;;;;;;;;;8.80;99.90;;;;;;5063187;28;19924;-64
2023/05/17 00:07:18;;;;;;;;;;;8.70;99.90;;;;;;5062930;28;19964;-64
2023/05/17 00:09:50;;;;;;;;;;;8.70;99.90;;;;;;5060742;28;19929;-64
2023/05/17 00:12:22;;;;;;;;;;;8.60;99.90;;;;;;5062894;28;19928;-64
2023/05/17 00:14:48;;;;;;;;;;;8.70;99.90;;;;;;5059945;28;19961;-64
2023/05/17 00:17:20;;;;;;;;;;;8.70;99.90;;;;;;5062749;28;19925;-64
2023/05/17 00:19:52;;;;;;;;;;;8.70;99.90;;;;;;5055301;28;19939;-64
2023/05/17 00:22:24;;;;;;;;;;;8.60;99.90;;;;;;5053482;28;20024;-64
2023/05/17 00:24:55;;;;;;;;;;;8.70;99.90;;;;;;5063309;28;19931;-64
2023/05/17 00:27:27;;;;;;;;;;;8.60;99.90;;;;;;5064399;28;19999;-64
2023/05/17 00:29:54;;;;;;;;;;;8.60;99.90;;;;;;5063616;28;20372;-64
2023/05/17 00:32:21;;;;;;;;;;;8.60;99.90;;;;;;5063143;28;20362;-64
2023/05/17 00:34:49;;;;;;;;;;;8.60;99.90;;;;;;5058912;28;19964;-64
2023/05/17 00:37:15;;;;;;;;;;;8.60;99.90;;;;;;5060483;28;20402;-64
2023/05/17 00:39:48;;;;;;;;;;;8.60;99.90;;;;;;5055448;28;20021;-64
2023/05/17 00:42:14;;;;;;;;;;;8.50;99.90;;;;;;5055468;28;19935;-64
2023/05/17 00:44:46;;;;;;;;;;;8.50;99.90;;;;;;5042068;28;20325;-64
2023/05/17 00:47:18;;;;;;;;;;;8.50;99.90;;;;;;5063477;28;19928;-64
2023/05/17 00:49:50;;;;;;;;;;;8.60;99.90;;;;;;5063143;28;19931;-64
2023/05/17 00:52:17;;;;;;;;;;;8.50;99.90;;;;;;5063069;28;19991;-64
2023/05/17 00:54:50;;;;;;;;;;;8.50;99.90;;;;;;5068448;28;19936;-64
2023/05/17 00:57:22;;;;;;;;;;;8.50;99.90;;;;;;5070385;28;20011;-64
2023/05/17 00:59:50;;;;;;;;;;;8.50;99.90;;;;;;5076296;28;20022;-64
2023/05/17 01:02:16;;;;;;;;;;;8.50;99.90;;;;;;5065343;28;20344;-64
2023/05/17 01:04:48;;;;;;;;;;;8.50;99.90;;;;;;5065194;28;19924;-64
2023/05/17 01:07:20;;;;;;;;;;;8.40;99.90;;;;;;5074178;28;19924;-64
2023/05/17 01:09:52;;;;;;;;;;;8.40;99.90;;;;;;5075004;28;20411;-64
2023/05/17 01:12:43;;;;;;;;;;;8.40;99.90;;;;;;5062263;28;19931;-64
2023/05/17 01:15:30;;;;;;;;;;;8.40;99.90;;;;;;5066286;28;19929;-64
2023/05/17 01:18:02;;;;;;;;;;;8.40;99.90;;;;;;5061705;28;19939;-64
2023/05/17 01:20:35;;;;;;;;;;;8.40;99.90;;;;;;5063666;28;20411;-64
2023/05/17 01:23:20;;;;;;;;;;;8.40;99.90;;;;;;5067684;28;19928;-64
2023/05/17 01:25:52;;;;;;;;;;;8.40;99.90;;;;;;5060230;28;19928;-64
2023/05/17 01:28:20;;;;;;;;;;;8.40;99.90;;;;;;5064329;28;20530;-64
2023/05/17 01:30:54;;;;;;;;;;;8.40;99.90;;;;;;5064026;28;19925;-64
2023/05/17 01:33:26;;;;;;;;;;;8.40;99.90;;;;;;5063612;28;20019;-64
2023/05/17 01:35:58;;;;;;;;;;;8.30;99.90;;;;;;5069390;28;19929;-64
2023/05/17 01:38:30;;;;;;;;;;;8.30;99.90;;;;;;5065358;28;19928;-64
2023/05/17 01:41:05;;;;;;;;;;;8.30;99.90;;;;;;5069973;28;19960;-64
2023/05/17 01:43:53;;;;;;;;;;;8.30;99.90;;;;;;5063880;28;20293;-64
2023/05/17 01:46:35;;;;;;;;;;;8.30;99.90;;;;;;5055021;28;19932;-64
2023/05/17 01:49:10;;;;;;;;;;;8.20;99.90;;;;;;5080220;28;19948;-64
2023/05/17 01:51:46;;;;;;;;;;;8.20;99.90;;;;;;5072925;28;20404;-64
2023/05/17 01:54:22;;;;;;;;;;;8.20;99.90;;;;;;5063811;28;19928;-64
2023/05/17 01:56:56;;;;;;;;;;;8.20;99.90;;;;;;5070584;28;20026;-64
2023/05/17 01:59:28;;;;;;;;;;;8.20;99.90;;;;;;5062137;28;19967;-64
2023/05/17 02:02:08;;;;;;;;;;;8.10;99.90;;;;;;5057931;28;19925;-64
2023/05/17 02:04:40;;;;;;;;;;;8.10;99.90;;;;;;5061528;28;19924;-64
2023/05/17 02:07:11;;;;;;;;;;;8.10;99.90;;;;;;5060863;28;19925;-64
2023/05/17 02:09:43;;;;;;;;;;;8.00;99.90;;;;;;5064963;28;19974;-64
2023/05/17 02:12:15;;;;;;;;;;;8.00;99.90;;;;;;5063160;28;20308;-64
2023/05/17 02:14:47;;;;;;;;;;;8.00;99.90;;;;;;5066182;28;19924;-64
2023/05/17 02:17:18;;;;;;;;;;;8.00;99.90;;;;;;5063309;28;19929;-64
2023/05/17 02:19:50;;;;;;;;;;;8.00;99.90;;;;;;5070955;28;19928;-64
2023/05/17 02:22:22;;;;;;;;;;;8.00;99.90;;;;;;5059649;28;20182;-64
2023/05/17 02:24:56;;;;;;;;;;;8.00;99.90;;;;;;5060818;28;19998;-64
2023/05/17 02:27:23;;;;;;;;;;;8.00;99.90;;;;;;5060100;28;19929;-64
2023/05/17 02:29:54;;;;;;;;;;;8.00;99.90;;;;;;5051110;28;19960;-64
2023/05/17 02:32:21;;;;;;;;;;;8.00;99.90;;;;;;5069312;28;19929;-64
2023/05/17 02:34:53;;;;;;;;;;;7.90;99.90;;;;;;5076078;28;19925;-64
2023/05/17 02:37:25;;;;;;;;;;;7.90;99.90;;;;;;5067179;28;19925;-64
2023/05/17 02:39:57;;;;;;;;;;;7.90;99.90;;;;;;5076999;28;20308;-64
2023/05/17 02:42:29;;;;;;;;;;;7.90;99.90;;;;;;5054274;28;19928;-64
2023/05/17 02:45:01;;;;;;;;;;;7.90;99.90;;;;;;5072833;28;19925;-64
2023/05/17 02:47:33;;;;;;;;;;;7.90;99.90;;;;;;5060218;28;19928;-64
2023/05/17 02:50:05;;;;;;;;;;;7.90;99.90;;;;;;5057988;28;19928;-64
2023/05/17 02:52:37;;;;;;;;;;;7.80;99.90;;;;;;5057087;28;19933;-64
2023/05/17 02:55:09;;;;;;;;;;;7.80;99.90;;;;;;5057306;28;20012;-64
2023/05/17 02:57:35;;;;;;;;;;;7.90;99.90;;;;;;5059155;28;19975;-64
2023/05/17 03:00:08;;;;;;;;;;;7.90;99.90;;;;;;5050455;28;19932;-64
2023/05/17 03:02:40;;;;;;;;;;;7.80;99.90;;;;;;5065117;28;19932;-64
2023/05/17 03:05:12;;;;;;;;;;;7.70;99.90;;;;;;5051699;28;19931;-64
2023/05/17 03:07:47;;;;;;;;;;;7.70;99.90;;;;;;5061634;28;20388;-64
2023/05/17 03:10:20;;;;;;;;;;;7.70;99.90;;;;;;5057894;28;19924;-64
2023/05/17 03:12:52;;;;;;;;;;;7.70;99.90;;;;;;5068492;28;19925;-64
2023/05/17 03:15:28;;;;;;;;;;;7.70;99.90;;;;;;5057711;28;19928;-64
2023/05/17 03:17:55;;;;;;;;;;;7.70;99.90;;;;;;5054571;28;19956;-64
2023/05/17 03:20:23;;;;;;;;;;;7.70;99.90;;;;;;5060895;28;20020;-64
2023/05/17 03:22:55;;;;;;;;;;;7.70;99.90;;;;;;5074121;28;19928;-64
2023/05/17 03:25:22;;;;;;;;;;;7.70;99.90;;;;;;5050279;28;20392;-64
2023/05/17 03:27:54;;;;;;;;;;;7.70;99.90;;;;;;5047984;28;19929;-64
2023/05/17 03:30:26;;;;;;;;;;;7.60;99.90;;;;;;5061089;28;19977;-64
2023/05/17 03:32:58;;;;;;;;;;;7.60;99.90;;;;;;5057601;28;19929;-64
2023/05/17 03:35:30;;;;;;;;;;;7.60;99.90;;;;;;5056210;28;19964;-64
2023/05/17 03:37:56;;;;;;;;;;;7.60;99.90;;;;;;5053668;28;19929;-64
2023/05/17 03:40:29;;;;;;;;;;;7.60;99.90;;;;;;5052612;28;19925;-64
2023/05/17 03:43:01;;;;;;;;;;;7.60;99.90;;;;;;5063594;28;19928;-64
2023/05/17 03:45:33;;;;;;;;;;;7.60;99.90;;;;;;5067311;28;19928;-64
2023/05/17 03:48:05;;;;;;;;;;;7.60;99.90;;;;;;5064785;28;19934;-64
2023/05/17 03:50:37;;;;;;;;;;;7.60;99.90;;;;;;5064395;28;20408;-64
2023/05/17 03:53:10;;;;;;;;;;;7.60;99.90;;;;;;5061009;28;20012;-64
2023/05/17 03:55:42;;;;;;;;;;;7.60;99.90;;;;;;5061784;28;19932;-64
2023/05/17 03:58:15;;;;;;;;;;;7.60;99.90;;;;;;5056585;28;19928;-64
2023/05/17 04:00:47;;;;;;;;;;;7.70;99.90;;;;;;5067397;28;19925;-64
2023/05/17 04:03:19;;;;;;;;;;;7.60;99.90;;;;;;5057771;28;20409;-64
2023/05/17 04:05:52;;;;;;;;;;;7.70;99.90;;;;;;5067069;28;19924;-64
2023/05/17 04:08:19;;;;;;;;;;;7.70;99.90;;;;;;5063465;28;20035;-64
2023/05/17 04:10:45;;;;;;;;;;;7.70;99.90;;;;;;5065158;28;19924;-64
2023/05/17 04:13:17;;;;;;;;;;;7.70;99.90;;;;;;5061975;28;20450;-64
2023/05/17 04:15:49;;;;;;;;;;;7.70;99.90;;;;;;5066751;28;19928;-64
2023/05/17 04:18:16;;;;;;;;;;;7.70;99.90;;;;;;5064362;28;20404;-64
2023/05/17 04:20:47;;;;;;;;;;;7.70;99.90;;;;;;5067057;28;19928;-64
2023/05/17 04:23:19;;;;;;;;;;;7.60;99.90;;;;;;5062935;28;19932;-65
2023/05/17 04:25:51;;;;;;;;;;;7.60;99.90;;;;;;5070758;28;20391;-66
2023/05/17 04:28:24;;;;;;;;;;;7.60;99.90;;;;;;5058619;28;19932;-64
2023/05/17 04:30:56;;;;;;;;;;;7.60;99.90;;;;;;5065435;28;20113;-65
2023/05/17 04:33:28;;;;;;;;;;;7.60;99.90;;;;;;5061977;28;19978;-64
2023/05/17 04:35:59;;;;;;;;;;;7.60;99.90;;;;;;5061391;28;20023;-64
2023/05/17 04:38:27;;;;;;;;;;;7.70;99.90;;;;;;5063212;28;19932;-64
2023/05/17 04:41:05;;;;;;;;;;;7.70;99.90;;;;;;5067991;28;20051;-64
2023/05/17 04:43:38;;;;;;;;;;;7.70;99.90;;;;;;5065428;28;20027;-65
2023/05/17 04:46:18;;;;;;;;;;;7.70;99.90;;;;;;5063298;28;20320;-65
2023/05/17 04:48:50;;;;;;;;;;;7.70;99.90;;;;;;5049106;28;20005;-64
2023/05/17 04:51:22;;;;;;;;;;;7.80;99.90;;;;;;5046552;28;20458;-64
2023/05/17 04:53:54;;;;;;;;;;;7.80;99.90;;;;;;5062398;28;19964;-64
2023/05/17 04:56:28;;;;;;;;;;;7.80;99.90;;;;;;5057157;28;19931;-64
2023/05/17 04:58:55;;;;;;;;;;;7.80;99.90;;;;;;5066531;28;20031;-64
2023/05/17 05:01:22;;;;;;;;;;;7.80;99.90;;;;;;5065866;28;19976;-64
2023/05/17 05:03:54;;;;;;;;;;;7.80;99.90;;;;;;5076248;28;19932;-65
2023/05/17 05:06:27;;;;;;;;;;;7.80;99.90;;;;;;5063015;28;19931;-64
2023/05/17 05:09:00;;;;;;;;;;;7.70;99.90;;;;;;5058902;28;19929;-64
2023/05/17 05:11:35;;;;;;;;;;;7.70;99.90;;;;;;5064155;28;19929;-64
2023/05/17 05:14:07;;;;;;;;;;;7.80;99.90;;;;;;5066722;28;19928;-64
2023/05/17 05:16:41;;;;;;;;;;;7.80;99.90;;;;;;5058997;28;20020;-64
2023/05/17 05:19:14;;;;;;;;;;;7.80;99.90;;;;;;5062369;28;19931;-64
2023/05/17 05:21:43;;;;;;;;;;;7.80;99.90;;;;;;5060514;28;19931;-64
2023/05/17 05:24:10;;;;;;;;;;;7.80;99.90;;;;;;5055694;28;19956;-64
2023/05/17 05:26:43;;;;;;;;;;;7.70;99.90;;;;;;5059241;28;20023;-64
2023/05/17 05:29:18;;;;;;;;;;;7.80;99.90;;;;;;5059003;28;19929;-64
2023/05/17 05:31:49;;;;;;;;;;;7.80;99.90;;;;;;5059650;28;19924;-64
2023/05/17 05:34:17;;;;;;;;;;;7.90;99.90;;;;;;5063767;28;20641;-64
2023/05/17 05:36:48;;;;;;;;;;;7.90;99.90;;;;;;5061389;28;19956;-64
2023/05/17 05:39:20;;;;;;;;;;;7.90;99.90;;;;;;5059758;28;19959;-64
2023/05/17 05:41:52;;;;;;;;;;;7.90;99.90;;;;;;5056261;28;20320;-65
2023/05/17 05:44:19;;;;;;;;;;;7.90;99.90;;;;;;5064345;28;20031;-64
2023/05/17 05:46:51;;;;;;;;;;;7.90;99.90;;;;;;5057738;28;19931;-64
2023/05/17 05:49:18;;;;;;;;;;;7.90;99.90;;;;;;5054805;28;19929;-64
2023/05/17 05:51:50;;;;;;;;;;;7.90;99.90;;;;;;5056802;28;20435;-64
2023/05/17 05:54:17;;;;;;;;;;;7.90;99.90;;;;;;5058793;28;19928;-64
2023/05/17 05:56:51;;;;;;;;;;;8.00;99.90;;;;;;5062485;28;20385;-64
2023/05/17 05:59:23;;;;;;;;;;;7.90;99.90;;;;;;5075277;28;20021;-64
2023/05/17 06:01:56;;;;;;;;;;;7.90;99.90;;;;;;5066221;28;19932;-64
2023/05/17 06:04:29;;;;;;;;;;;8.00;99.90;;;;;;5060417;28;19952;-64
2023/05/17 06:06:56;;;;;;;;;;;8.00;99.90;;;;;;5060433;28;20411;-64
2023/05/17 06:09:27;;;;;;;;;;;8.00;99.90;;;;;;5052210;28;20032;-64
2023/05/17 06:12:00;;;;;;;;;;;8.00;99.90;;;;;;5052735;28;20393;-64
2023/05/17 06:14:26;;;;;;;;;;;8.10;99.90;;;;;;5053702;28;19925;-64
2023/05/17 06:16:58;;;;;;;;;;;8.10;99.90;;;;;;5063553;28;20420;-64
2023/05/17 06:19:30;;;;;;;;;;;8.10;99.90;;;;;;5067674;28;19931;-64
2023/05/17 06:22:01;;;;;;;;;;;8.20;99.90;;;;;;5067126;28;19924;-64
2023/05/17 06:24:33;;;;;;;;;;;8.20;99.90;;;;;;5065645;28;20532;-64
2023/05/17 06:27:06;;;;;;;;;;;8.30;99.90;;;;;;5060278;28;20430;-64
2023/05/17 06:29:37;;;;;;;;;;;8.40;99.90;;;;;;5064684;28;20384;-64
2023/05/17 06:32:10;;;;;;;;;;;8.40;99.90;;;;;;5059977;28;19925;-64
2023/05/17 06:34:42;;;;;;;;;;;8.40;99.90;;;;;;5066356;28;19929;-64
2023/05/17 06:37:14;;;;;;;;;;;8.50;99.90;;;;;;5066345;28;19925;-64
2023/05/17 06:39:40;;;;;;;;;;;8.60;99.90;;;;;;5064726;28;19929;-64
2023/05/17 06:42:12;;;;;;;;;;;8.70;99.90;;;;;;5067553;28;19929;-64
2023/05/17 06:44:45;;;;;;;;;;;8.70;99.90;;;;;;5065879;28;19928;-64
2023/05/17 06:47:12;;;;;;;;;;;8.80;99.90;;;;;;5064089;28;19944;-64
2023/05/17 06:49:44;;;;;;;;;;;8.80;99.90;;;;;;5063010;28;19967;-64
2023/05/17 06:52:11;;;;;;;;;;;8.90;99.90;;;;;;5075581;28;19931;-64
2023/05/17 06:54:38;;;;;;;;;;;8.90;99.90;;;;;;5059540;28;19931;-64
2023/05/17 06:57:09;;;;;;;;;;;8.90;99.90;;;;;;5054369;28;19931;-64
2023/05/17 06:59:41;;;;;;;;;;;8.90;99.90;;;;;;5058900;28;20300;-64
2023/05/17 07:02:12;;;;;;;;;;;8.90;99.90;;;;;;5065140;28;19924;-64
2023/05/17 07:04:39;;;;;;;;;;;8.90;99.90;;;;;;5069563;28;19954;-64
2023/05/17 07:07:11;;;;;;;;;;;9.00;99.90;;;;;;5063888;28;19978;-64
2023/05/17 07:09:38;;;;;;;;;;;9.10;99.90;;;;;;5063728;28;20459;-64
2023/05/17 07:12:10;;;;;;;;;;;9.10;99.90;;;;;;5062640;28;19960;-64
2023/05/17 07:14:42;;;;;;;;;;;9.10;99.90;;;;;;5064537;28;19931;-64
2023/05/17 07:17:10;;;;;;;;;;;9.10;99.90;;;;;;5060558;28;19962;-64
2023/05/17 07:19:37;;;;;;;;;;;9.20;99.90;;;;;;5071174;28;19925;-64
2023/05/17 07:22:09;;;;;;;;;;;9.20;99.90;;;;;;5071672;28;19924;-64
2023/05/17 07:24:41;;;;;;;;;;;9.30;99.90;;;;;;5063308;28;19924;-64
2023/05/17 07:27:08;;;;;;;;;;;9.40;99.90;;;;;;5063859;28;20419;-64
2023/05/17 07:29:41;;;;;;;;;;;9.50;99.90;;;;;;5063513;28;19935;-64
2023/05/17 07:32:10;;;;;;;;;;;9.70;99.90;;;;;;5065227;28;19925;-64
2023/05/17 07:34:42;;;;;;;;;;;9.80;99.90;;;;;;5065620;28;19931;-64
2023/05/17 07:37:13;;;;;;;;;;;9.90;99.90;;;;;;5069231;28;19948;-64
2023/05/17 07:39:45;;;;;;;;;;;9.90;99.90;;;;;;5065925;28;19925;-64
2023/05/17 07:42:17;;;;;;;;;;;9.90;99.90;;;;;;5071025;28;20083;-64
2023/05/17 07:44:47;;;;;;;;;;;10.00;99.90;;;;;;5070868;28;19982;-65
2023/05/17 07:47:14;;;;;;;;;;;10.10;99.90;;;;;;5055218;28;19947;-64
2023/05/17 07:49:41;;;;;;;;;;;10.20;99.90;;;;;;5060783;28;19974;-65
2023/05/17 07:52:08;;;;;;;;;;;10.30;99.90;;;;;;5069537;28;19955;-65
2023/05/17 07:54:40;;;;;;;;;;;10.50;99.90;;;;;;5061143;28;19928;-65
2023/05/17 07:57:12;;;;;;;;;;;10.60;99.90;;;;;;5068608;28;19931;-65
2023/05/17 07:59:44;;;;;;;;;;;10.70;99.90;;;;;;5052741;28;19950;-65
2023/05/17 08:02:16;;;;;;;;;;;10.70;99.90;;;;;;5063129;28;19932;-64
2023/05/17 08:04:48;;;;;;;;;;;10.70;99.90;;;;;;5064535;28;19925;-64
2023/05/17 08:07:18;;;;;;;;;;;10.70;99.90;;;;;;5064222;28;20437;-64
2023/05/17 08:09:50;;;;;;;;;;;10.90;99.90;;;;;;5067144;28;20037;-65
2023/05/17 08:12:23;;;;;;;;;;;11.00;99.90;;;;;;5063065;28;19975;-65
2023/05/17 08:14:51;;;;;;;;;;;11.00;99.90;;;;;;5060152;28;19971;-64
2023/05/17 08:17:24;;;;;;;;;;;11.00;99.90;;;;;;5058981;28;20381;-64
2023/05/17 08:19:56;;;;;;;;;;;10.90;99.90;;;;;;5053663;28;20383;-65
2023/05/17 08:22:28;;;;;;;;;;;10.90;99.90;;;;;;5065316;28;20400;-65
2023/05/17 08:25:00;;;;;;;;;;;10.90;99.90;;;;;;5060064;28;20256;-64
2023/05/17 08:27:32;;;;;;;;;;;11.10;99.90;;;;;;5062801;28;19925;-64
2023/05/17 08:30:05;;;;;;;;;;;11.20;99.90;;;;;;5062654;28;19925;-65
2023/05/17 08:32:37;;;;;;;;;;;11.40;99.90;;;;;;5061081;28;19924;-64
2023/05/17 08:35:10;;;;;;;;;;;11.50;99.90;;;;;;5060739;28;20475;-65
2023/05/17 08:37:42;;;;;;;;;;;11.40;99.90;;;;;;5057835;28;19929;-65
2023/05/17 08:40:18;;;;;;;;;;;11.40;99.90;;;;;;5070108;28;19928;-65
2023/05/17 08:42:51;;;;;;;;;;;11.40;99.90;;;;;;5061542;28;19925;-65
2023/05/17 08:45:25;;;;;;;;;;;11.10;99.90;;;;;;5064862;28;19928;-65
2023/05/17 08:48:06;;;;;;;;;;;11.20;99.90;;;;;;5070767;28;19928;-65
2023/05/17 08:50:34;;;;;;;;;;;11.40;99.90;;;;;;5060270;28;19924;-65
2023/05/17 08:53:01;;;;;;;;;;;11.70;99.90;;;;;;5065082;28;19936;-65
2023/05/17 08:55:33;;;;;;;;;;;11.90;99.90;;;;;;5064565;28;19924;-65
2023/05/17 08:58:00;;;;;;;;;;;12.00;99.90;;;;;;5063407;28;20471;-65
2023/05/17 09:00:33;;;;;;;;;;;12.20;99.90;;;;;;5056811;28;19924;-65
2023/05/17 09:03:06;;;;;;;;;;;12.30;99.90;;;;;;5057029;28;20502;-65
2023/05/17 09:05:38;;;;;;;;;;;12.40;99.90;;;;;;5055847;28;19929;-65
2023/05/17 09:08:13;;;;;;;;;;;12.30;99.90;;;;;;5051219;28;20304;-65
2023/05/17 09:10:45;;;;;;;;;;;12.20;99.90;;;;;;5065493;28;19925;-65
2023/05/17 09:13:17;;;;;;;;;;;12.00;99.90;;;;;;5058169;28;19951;-65
2023/05/17 09:15:48;;;;;;;;;;;11.80;99.90;;;;;;5061814;28;19968;-65
2023/05/17 09:18:31;;;;;;;;;;;11.80;99.90;;;;;;5063111;28;19929;-65
2023/05/17 09:21:02;;;;;;;;;;;11.70;99.90;;;;;;5065215;28;20068;-65
2023/05/17 09:23:36;;;;;;;;;;;11.60;99.90;;;;;;5057155;28;19936;-65
2023/05/17 09:26:08;;;;;;;;;;;11.40;99.90;;;;;;5060365;28;19935;-65
2023/05/17 09:28:39;;;;;;;;;;;11.30;99.90;;;;;;5052964;28;19925;-65
2023/05/17 09:31:14;;;;;;;;;;;11.40;99.90;;;;;;5050214;28;20015;-65
2023/05/17 09:33:48;;;;;;;;;;;11.40;99.90;;;;;;5055092;28;20424;-65
2023/05/17 09:36:20;;;;;;;;;;;11.50;99.90;;;;;;5058314;28;20019;-65
2023/05/17 09:38:57;;;;;;;;;;;11.80;99.90;;;;;;5065087;28;19925;-65
2023/05/17 09:41:30;;;;;;;;;;;11.90;99.90;;;;;;5062722;28;20017;-65
2023/05/17 09:44:08;;;;;;;;;;;12.10;99.90;;;;;;5063830;28;19924;-66
2023/05/17 09:46:40;;;;;;;;;;;12.30;99.90;;;;;;5074793;28;19924;-67
2023/05/17 09:49:09;;;;;;;;;;;12.60;99.90;;;;;;5067713;28;19930;-66
2023/05/17 09:51:48;;;;;;;;;;;12.80;99.90;;;;;;5070170;28;19925;-66
2023/05/17 09:54:20;;;;;;;;;;;13.00;99.90;;;;;;5074540;28;20460;-65
2023/05/17 09:56:54;;;;;;;;;;;13.00;99.90;;;;;;5066292;28;19964;-68
2023/05/17 09:59:25;;;;;;;;;;;13.00;99.90;;;;;;5074009;28;19932;-65
2023/05/17 10:01:57;;;;;;;;;;;13.00;99.90;;;;;;5068043;28;19928;-65
2023/05/17 10:04:27;;;;;;;;;;;13.10;99.90;;;;;;5069111;28;19925;-65
2023/05/17 10:06:55;;;;;;;;;;;13.10;99.90;;;;;;5065282;28;20289;-65
2023/05/17 10:09:33;;;;;;;;;;;13.10;99.90;;;;;;5068920;28;19924;-65
2023/05/17 10:12:06;;;;;;;;;;;13.20;99.90;;;;;;5069969;28;20398;-65
2023/05/17 10:14:38;;;;;;;;;;;13.20;99.90;;;;;;5060350;28;19975;-65
2023/05/17 10:17:07;;;;;;;;;;;13.30;99.90;;;;;;5069935;28;20319;-65
2023/05/17 10:19:40;;;;;;;;;;;13.30;99.90;;;;;;5047678;28;19925;-65
2023/05/17 10:22:07;;;;;;;;;;;13.30;99.90;;;;;;5070923;28;19970;-65
2023/05/17 10:24:37;;;;;;;;;;;13.20;99.90;;;;;;5070771;28;19931;-65
2023/05/17 10:27:09;;;;;;;;;;;13.20;99.90;;;;;;5068608;28;19925;-65
2023/05/17 10:29:42;;;;;;;;;;;13.30;99.90;;;;;;5062896;28;20284;-65
2023/05/17 10:32:16;;;;;;;;;;;13.30;99.90;;;;;;5067157;28;19945;-65
2023/05/17 10:34:49;;;;;;;;;;;13.40;99.90;;;;;;5067857;28;19956;-65
2023/05/17 10:37:21;;;;;;;;;;;13.30;99.90;;;;;;5066946;28;19928;-65
2023/05/17 10:39:55;;;;;;;;;;;13.10;99.90;;;;;;5065851;28;20073;-65
2023/05/17 10:42:29;;;;;;;;;;;13.10;99.90;;;;;;5063013;28;19934;-65
2023/05/17 10:45:01;;;;;;;;;;;13.10;99.90;;;;;;5063003;28;21186;-65
2023/05/17 10:47:31;;;;;;;;;;;13.30;99.90;;;;;;5065399;28;19931;-65
2023/05/17 10:49:58;;;;;;;;;;;13.30;99.90;;;;;;5067239;28;20337;-65
2023/05/17 10:52:30;;;;;;;;;;;13.30;99.90;;;;;;5066753;28;19936;-65
2023/05/17 10:54:58;;;;;;;;;;;13.40;99.90;;;;;;5067702;28;20357;-65
2023/05/17 10:57:37;;;;;;;;;;;13.70;99.90;;;;;;5065443;28;20531;-65
2023/05/17 11:00:18;;;;;;;;;;;13.70;99.90;;;;;;5068657;28;19960;-65
2023/05/17 11:02:49;;;;;;;;;;;13.60;99.90;;;;;;5067407;28;19928;-65
2023/05/17 11:05:25;;;;;;;;;;;13.60;99.90;;;;;;5065332;28;20319;-65
2023/05/17 11:08:16;;;;;;;;;;;13.50;99.90;;;;;;5064186;28;19932;-65
2023/05/17 11:11:06;;;;;;;;;;;13.50;99.90;;;;;;5059886;28;19933;-65
2023/05/17 11:13:54;;;;;;;;;;;13.50;99.90;;;;;;5064737;28;19932;-65
2023/05/17 11:16:36;;;;;;;;;;;13.60;99.90;;;;;;5065995;28;19936;-65
2023/05/17 11:19:09;;;;;;;;;;;14.00;99.90;;;;;;5048253;28;19929;-65
2023/05/17 11:21:44;;;;;;;;;;;14.20;99.90;;;;;;5070410;28;19924;-65
2023/05/17 11:24:23;;;;;;;;;;;14.00;99.90;;;;;;5069666;28;19930;-65
2023/05/17 11:26:56;;;;;;;;;;;13.90;99.90;;;;;;5066349;28;19928;-65
2023/05/17 11:29:27;;;;;;;;;;;13.80;99.90;;;;;;5065554;28;19932;-65
2023/05/17 11:32:04;;;;;;;;;;;13.70;99.90;;;;;;5059464;28;20308;-65
2023/05/17 11:34:37;;;;;;;;;;;13.80;99.90;;;;;;5061147;28;19928;-65
2023/05/17 11:37:09;;;;;;;;;;;13.90;99.90;;;;;;5059032;28;19933;-65
2023/05/17 11:40:00;;;;;;;;;;;14.00;99.90;;;;;;5065268;28;19925;-65
2023/05/17 11:42:32;;;;;;;;;;;14.20;99.90;;;;;;5063700;28;19964;-65
2023/05/17 11:45:02;;;;;;;;;;;14.30;99.90;;;;;;5062717;28;20313;-65
2023/05/17 11:47:37;;;;;;;;;;;14.70;99.90;;;;;;5067091;28;19935;-65
2023/05/17 11:50:09;;;;;;;;;;;14.80;99.90;;;;;;5068688;28;19940;-65
2023/05/17 11:52:41;;;;;;;;;;;14.80;99.90;;;;;;5068264;28;19924;-65
2023/05/17 11:55:14;;;;;;;;;;;14.50;99.90;;;;;;5067215;28;19928;-65
2023/05/17 11:57:46;;;;;;;;;;;14.40;99.90;;;;;;5065722;28;19929;-65
2023/05/17 12:00:25;;;;;;;;;;;14.30;99.90;;;;;;5058208;28;19935;-65
2023/05/17 12:02:57;;;;;;;;;;;14.20;99.90;;;;;;5062963;28;19950;-65
2023/05/17 12:05:29;;;;;;;;;;;14.10;99.90;;;;;;5060206;28;19933;-65
2023/05/17 12:08:02;;;;;;;;;;;14.00;99.90;;;;;;5064443;28;19978;-65
2023/05/17 12:10:34;;;;;;;;;;;14.00;99.90;;;;;;5063960;28;19935;-65
2023/05/17 12:13:06;;;;;;;;;;;14.20;99.90;;;;;;5064817;28;20031;-64
2023/05/17 12:15:39;;;;;;;;;;;14.40;99.90;;;;;;5063551;28;19929;-65
2023/05/17 12:18:11;;;;;;;;;;;14.50;99.90;;;;;;5061322;28;20419;-65
2023/05/17 12:20:51;;;;;;;;;;;14.40;99.90;;;;;;5060081;28;19935;-65
2023/05/17 12:23:27;;;;;;;;;;;14.40;99.90;;;;;;5059582;28;19978;-64
2023/05/17 12:26:03;;;;;;;;;;;14.20;99.90;;;;;;5059871;28;20396;-65
2023/05/17 12:28:30;;;;;;;;;;;14.10;99.90;;;;;;5056097;28;19936;-65
2023/05/17 12:31:02;;;;;;;;;;;14.10;99.90;;;;;;5064246;28;19931;-65
2023/05/17 12:33:30;;;;;;;;;;;14.00;99.90;;;;;;5065932;28;20560;-65
2023/05/17 12:36:02;;;;;;;;;;;14.00;99.90;;;;;;5064535;28;19925;-64
2023/05/17 12:38:35;;;;;;;;;;;13.90;99.90;;;;;;5066403;28;19935;-64
2023/05/17 12:41:08;;;;;;;;;;;13.90;99.90;;;;;;5062708;28;19933;-65
2023/05/17 12:43:40;;;;;;;;;;;13.90;99.90;;;;;;5060840;28;20015;-65
2023/05/17 12:46:13;;;;;;;;;;;14.10;99.90;;;;;;5068225;28;19925;-65
2023/05/17 12:48:45;;;;;;;;;;;14.30;99.90;;;;;;5062676;28;19976;-65
2023/05/17 12:51:12;;;;;;;;;;;14.50;99.90;;;;;;5064945;28;19964;-65
2023/05/17 12:53:49;;;;;;;;;;;14.60;99.90;;;;;;5065383;28;20388;-65
2023/05/17 12:56:17;;;;;;;;;;;15.00;99.90;;;;;;5067531;28;19949;-65
2023/05/17 12:59:02;;;;;;;;;;;15.20;99.90;;;;;;5063437;28;19925;-65
2023/05/17 13:01:32;;;;;;;;;;;15.40;99.90;;;;;;5066484;28;19929;-65
2023/05/17 13:04:05;;;;;;;;;;;15.50;99.90;;;;;;5063717;28;20362;-65
2023/05/17 13:06:46;;;;;;;;;;;15.30;99.90;;;;;;5066932;28;20339;-65
2023/05/17 13:09:19;;;;;;;;;;;15.30;99.90;;;;;;5068439;28;19932;-65
2023/05/17 13:11:49;;;;;;;;;;;15.20;99.90;;;;;;5064209;28;20356;-65
2023/05/17 13:14:40;;;;;;;;;;;15.20;99.90;;;;;;5061610;28;20007;-65
2023/05/17 13:17:16;;;;;;;;;;;15.30;99.90;;;;;;5066067;28;19925;-64
2023/05/17 13:19:48;;;;;;;;;;;15.30;99.90;;;;;;5064945;28;20024;-64
2023/05/17 13:22:19;;;;;;;;;;;15.30;99.90;;;;;;5063110;28;19928;-64
2023/05/17 13:24:46;;;;;;;;;;;15.50;99.90;;;;;;5067120;28;19970;-64
2023/05/17 13:27:18;;;;;;;;;;;15.50;99.90;;;;;;5066268;28;19935;-64
2023/05/17 13:29:50;;;;;;;;;;;15.30;99.90;;;;;;5071243;28;19932;-64
2023/05/17 13:32:22;;;;;;;;;;;15.20;99.90;;;;;;5070280;28;19924;-64
2023/05/17 13:34:54;;;;;;;;;;;15.30;99.90;;;;;;5066780;28;20312;-64
2023/05/17 13:37:25;;;;;;;;;;;15.40;99.90;;;;;;5066804;28;19931;-64
2023/05/17 13:39:57;;;;;;;;;;;15.40;99.90;;;;;;5070480;28;19936;-64
2023/05/17 13:42:29;;;;;;;;;;;15.40;99.90;;;;;;5069165;28;19928;-64
2023/05/17 13:45:01;;;;;;;;;;;15.40;99.90;;;;;;5081896;28;19928;-64
2023/05/17 13:47:34;;;;;;;;;;;15.40;99.90;;;;;;5066357;28;19935;-64
2023/05/17 13:50:06;;;;;;;;;;;15.40;99.90;;;;;;5070680;28;19939;-64
2023/05/17 13:52:33;;;;;;;;;;;15.30;99.90;;;;;;5069894;28;19936;-64
2023/05/17 13:55:05;;;;;;;;;;;15.50;99.90;;;;;;5069877;28;19931;-64
2023/05/17 13:57:37;;;;;;;;;;;15.50;99.90;;;;;;5069605;28;19925;-64
2023/05/17 14:00:09;;;;;;;;;;;15.40;99.90;;;;;;5070496;28;19955;-68
2023/05/17 14:02:43;;;;;;;;;;;15.40;99.90;;;;;;5068791;28;20026;-65
2023/05/17 14:05:15;;;;;;;;;;;15.50;99.90;;;;;;5068557;28;20544;-65
2023/05/17 14:07:42;;;;;;;;;;;15.50;99.90;;;;;;5071105;28;20396;-64
2023/05/17 14:10:14;;;;;;;;;;;15.50;99.90;;;;;;5070137;28;20032;-64
2023/05/17 14:12:46;;;;;;;;;;;15.50;99.90;;;;;;5066160;28;20445;-64
2023/05/17 14:15:18;;;;;;;;;;;15.50;99.90;;;;;;5068696;28;19954;-64
2023/05/17 14:17:50;;;;;;;;;;;15.60;99.90;;;;;;5068654;28;20304;-64
2023/05/17 14:20:21;;;;;;;;;;;15.60;99.90;;;;;;5071043;28;19967;-65
2023/05/17 14:22:53;;;;;;;;;;;15.70;99.90;;;;;;5068329;28;19924;-64
2023/05/17 14:25:25;;;;;;;;;;;15.80;99.90;;;;;;5072989;28;19928;-64
2023/05/17 14:27:57;;;;;;;;;;;15.80;99.90;;;;;;5068903;28;19929;-64
2023/05/17 14:30:28;;;;;;;;;;;15.70;99.90;;;;;;5067284;28;19950;-64
2023/05/17 14:33:00;;;;;;;;;;;15.70;99.90;;;;;;5063427;28;19928;-64
2023/05/17 14:35:32;;;;;;;;;;;15.70;99.90;;;;;;5059960;28;19935;-64
2023/05/17 14:37:59;;;;;;;;;;;15.90;99.90;;;;;;5066245;28;19924;-64
2023/05/17 14:40:31;;;;;;;;;;;16.00;99.90;;;;;;5064382;28;20414;-64
2023/05/17 14:43:03;;;;;;;;;;;16.10;99.90;;;;;;5067855;28;19928;-64
2023/05/17 14:45:35;;;;;;;;;;;16.20;99.90;;;;;;5065629;28;19935;-64
2023/05/17 14:48:07;;;;;;;;;;;16.00;99.90;;;;;;5068009;28;20435;-64
2023/05/17 14:50:39;;;;;;;;;;;16.00;99.90;;;;;;5064618;28;19924;-64
2023/05/17 14:53:10;;;;;;;;;;;15.80;99.90;;;;;;5063159;28;19929;-64